sensor_id;sensor_type;location;lat;lon;timestamp;temperature;humidity
20957;DHT22;10637;47.970;7.830;2023-03-29T00:03:50;10.30;95.40
20957;DHT22;10637;47.970;7.830;2023-03-29T00:08:52;10.30;90.90
20957;DHT22;10637;47.970;7.830;2023-03-29T00:13:56;10.60;87.00
20957;DHT22;10637;47.970;7.830;2023-03-29T00:18:58;10.80;91.20
20957;DHT22;10637;47.970;7.830;2023-03-29T00:24:00;10.80;87.40
20957;DHT22;10637;47.970;7.830;2023-03-29T00:29:02;10.70;92.30
20957;DHT22;10637;47.970;7.830;2023-03-29T00:34:04;10.60;91.00
20957;DHT22;10637;47.970;7.830;2023-03-29T00:39:06;10.80;88.50
20957;DHT22;10637;47.970;7.830;2023-03-29T00:49:48;11.00;90.30
20957;DHT22;10637;47.970;7.830;2023-03-29T00:54:52;10.80;89.80
20957;DHT22;10637;47.970;7.830;2023-03-29T00:59:56;11.20;78.90
20957;DHT22;10637;47.970;7.830;2023-03-29T01:05:08;11.10;83.00
20957;DHT22;10637;47.970;7.830;2023-03-29T01:10:39;11.20;83.60
20957;DHT22;10637;47.970;7.830;2023-03-29T01:15:43;11.10;84.00
20957;DHT22;10637;47.970;7.830;2023-03-29T01:26:24;10.80;88.80
20957;DHT22;10637;47.970;7.830;2023-03-29T01:31:30;10.70;90.40
20957;DHT22;10637;47.970;7.830;2023-03-29T01:36:41;10.70;89.30
20957;DHT22;10637;47.970;7.830;2023-03-29T01:47:08;10.90;85.20
20957;DHT22;10637;47.970;7.830;2023-03-29T01:52:16;10.90;86.60
20957;DHT22;10637;47.970;7.830;2023-03-29T01:57:22;10.90;89.80
20957;DHT22;10637;47.970;7.830;2023-03-29T02:02:26;10.80;86.70
20957;DHT22;10637;47.970;7.830;2023-03-29T02:07:29;11.10;83.30
20957;DHT22;10637;47.970;7.830;2023-03-29T02:12:32;11.20;81.10
20957;DHT22;10637;47.970;7.830;2023-03-29T02:17:34;11.30;80.60
20957;DHT22;10637;47.970;7.830;2023-03-29T02:23:00;11.30;80.90
20957;DHT22;10637;47.970;7.830;2023-03-29T02:28:00;11.30;81.00
20957;DHT22;10637;47.970;7.830;2023-03-29T02:33:08;11.40;79.10
20957;DHT22;10637;47.970;7.830;2023-03-29T02:38:11;11.40;78.80
20957;DHT22;10637;47.970;7.830;2023-03-29T02:43:15;11.40;79.30
20957;DHT22;10637;47.970;7.830;2023-03-29T02:48:20;11.40;79.30
20957;DHT22;10637;47.970;7.830;2023-03-29T02:53:29;11.50;78.20
20957;DHT22;10637;47.970;7.830;2023-03-29T02:58:33;11.50;79.10
20957;DHT22;10637;47.970;7.830;2023-03-29T03:03:37;11.50;78.50
20957;DHT22;10637;47.970;7.830;2023-03-29T03:08:39;11.50;77.50
20957;DHT22;10637;47.970;7.830;2023-03-29T03:13:41;11.50;77.40
20957;DHT22;10637;47.970;7.830;2023-03-29T03:18:43;11.50;77.40
20957;DHT22;10637;47.970;7.830;2023-03-29T03:23:46;11.60;76.50
20957;DHT22;10637;47.970;7.830;2023-03-29T03:28:49;11.60;77.60
20957;DHT22;10637;47.970;7.830;2023-03-29T03:33:51;11.50;78.60
20957;DHT22;10637;47.970;7.830;2023-03-29T03:38:54;11.50;77.90
20957;DHT22;10637;47.970;7.830;2023-03-29T03:43:55;11.60;76.60
20957;DHT22;10637;47.970;7.830;2023-03-29T03:48:57;11.70;77.60
20957;DHT22;10637;47.970;7.830;2023-03-29T03:53:59;11.70;76.70
20957;DHT22;10637;47.970;7.830;2023-03-29T03:59:01;11.80;76.30
20957;DHT22;10637;47.970;7.830;2023-03-29T04:04:03;12.00;75.10
20957;DHT22;10637;47.970;7.830;2023-03-29T04:09:05;12.10;74.60
20957;DHT22;10637;47.970;7.830;2023-03-29T04:14:07;12.10;75.20
20957;DHT22;10637;47.970;7.830;2023-03-29T04:19:09;12.10;75.50
20957;DHT22;10637;47.970;7.830;2023-03-29T04:24:12;12.10;75.60
20957;DHT22;10637;47.970;7.830;2023-03-29T04:29:14;12.10;75.80
20957;DHT22;10637;47.970;7.830;2023-03-29T04:34:16;12.10;75.50
20957;DHT22;10637;47.970;7.830;2023-03-29T04:39:18;12.20;75.40
20957;DHT22;10637;47.970;7.830;2023-03-29T04:44:19;12.20;76.60
20957;DHT22;10637;47.970;7.830;2023-03-29T04:49:21;12.20;76.90
20957;DHT22;10637;47.970;7.830;2023-03-29T04:54:26;12.20;77.00
20957;DHT22;10637;47.970;7.830;2023-03-29T04:59:28;12.30;78.20
20957;DHT22;10637;47.970;7.830;2023-03-29T05:04:30;12.30;77.50
20957;DHT22;10637;47.970;7.830;2023-03-29T05:09:33;12.30;75.80
20957;DHT22;10637;47.970;7.830;2023-03-29T05:14:36;12.30;75.20
20957;DHT22;10637;47.970;7.830;2023-03-29T05:19:37;12.30;75.80
20957;DHT22;10637;47.970;7.830;2023-03-29T05:24:39;12.30;76.40
20957;DHT22;10637;47.970;7.830;2023-03-29T05:29:42;12.30;76.10
20957;DHT22;10637;47.970;7.830;2023-03-29T05:34:45;12.30;77.20
20957;DHT22;10637;47.970;7.830;2023-03-29T05:39:47;12.30;77.60
20957;DHT22;10637;47.970;7.830;2023-03-29T05:44:50;12.30;78.00
20957;DHT22;10637;47.970;7.830;2023-03-29T05:49:55;12.30;78.70
20957;DHT22;10637;47.970;7.830;2023-03-29T05:54:57;12.30;79.10
20957;DHT22;10637;47.970;7.830;2023-03-29T06:00:01;12.40;79.00
20957;DHT22;10637;47.970;7.830;2023-03-29T06:05:05;12.40;79.60
20957;DHT22;10637;47.970;7.830;2023-03-29T06:10:07;12.50;80.00
20957;DHT22;10637;47.970;7.830;2023-03-29T06:15:10;12.50;79.90
20957;DHT22;10637;47.970;7.830;2023-03-29T06:20:13;12.60;79.10
20957;DHT22;10637;47.970;7.830;2023-03-29T06:25:15;12.60;78.40
20957;DHT22;10637;47.970;7.830;2023-03-29T06:30:18;12.70;77.70
20957;DHT22;10637;47.970;7.830;2023-03-29T06:35:21;12.70;78.10
20957;DHT22;10637;47.970;7.830;2023-03-29T06:40:23;12.70;75.70
20957;DHT22;10637;47.970;7.830;2023-03-29T06:45:26;12.80;75.90
20957;DHT22;10637;47.970;7.830;2023-03-29T06:50:30;12.80;76.60
20957;DHT22;10637;47.970;7.830;2023-03-29T06:55:32;12.80;76.20
20957;DHT22;10637;47.970;7.830;2023-03-29T07:00:35;12.90;75.80
20957;DHT22;10637;47.970;7.830;2023-03-29T07:05:39;13.00;76.80
20957;DHT22;10637;47.970;7.830;2023-03-29T07:10:44;13.10;76.70
20957;DHT22;10637;47.970;7.830;2023-03-29T07:15:48;13.20;77.30
20957;DHT22;10637;47.970;7.830;2023-03-29T07:20:49;13.20;76.00
20957;DHT22;10637;47.970;7.830;2023-03-29T07:25:52;13.20;75.90
20957;DHT22;10637;47.970;7.830;2023-03-29T07:31:04;13.30;76.20
20957;DHT22;10637;47.970;7.830;2023-03-29T07:36:07;13.40;75.70
20957;DHT22;10637;47.970;7.830;2023-03-29T07:41:09;13.40;76.00
20957;DHT22;10637;47.970;7.830;2023-03-29T07:46:11;13.50;75.40
20957;DHT22;10637;47.970;7.830;2023-03-29T07:51:13;13.60;74.30
20957;DHT22;10637;47.970;7.830;2023-03-29T07:56:16;13.70;74.60
20957;DHT22;10637;47.970;7.830;2023-03-29T08:01:18;13.80;74.60
20957;DHT22;10637;47.970;7.830;2023-03-29T08:06:21;13.90;73.70
20957;DHT22;10637;47.970;7.830;2023-03-29T08:11:22;14.00;72.80
20957;DHT22;10637;47.970;7.830;2023-03-29T08:16:25;14.10;73.50
20957;DHT22;10637;47.970;7.830;2023-03-29T08:21:27;14.20;72.40
20957;DHT22;10637;47.970;7.830;2023-03-29T08:26:29;14.30;72.20
20957;DHT22;10637;47.970;7.830;2023-03-29T08:31:31;14.40;71.80
20957;DHT22;10637;47.970;7.830;2023-03-29T08:36:34;14.50;71.50
20957;DHT22;10637;47.970;7.830;2023-03-29T08:47:07;14.60;70.30
20957;DHT22;10637;47.970;7.830;2023-03-29T08:52:23;14.70;71.10
20957;DHT22;10637;47.970;7.830;2023-03-29T08:57:31;14.70;71.40
20957;DHT22;10637;47.970;7.830;2023-03-29T09:02:34;14.70;72.90
20957;DHT22;10637;47.970;7.830;2023-03-29T09:07:36;14.70;71.80
20957;DHT22;10637;47.970;7.830;2023-03-29T09:12:50;14.70;70.60
20957;DHT22;10637;47.970;7.830;2023-03-29T09:18:26;14.70;71.00
20957;DHT22;10637;47.970;7.830;2023-03-29T09:24:06;14.80;69.40
20957;DHT22;10637;47.970;7.830;2023-03-29T09:35:11;14.80;69.60
20957;DHT22;10637;47.970;7.830;2023-03-29T09:41:16;15.00;71.30
20957;DHT22;10637;47.970;7.830;2023-03-29T09:45:59;15.10;70.10
20957;DHT22;10637;47.970;7.830;2023-03-29T09:51:04;15.20;70.10
20957;DHT22;10637;47.970;7.830;2023-03-29T09:56:07;15.20;68.30
20957;DHT22;10637;47.970;7.830;2023-03-29T10:01:13;15.20;68.80
20957;DHT22;10637;47.970;7.830;2023-03-29T10:06:16;15.10;69.30
20957;DHT22;10637;47.970;7.830;2023-03-29T10:16:37;15.20;71.30
20957;DHT22;10637;47.970;7.830;2023-03-29T10:21:39;15.20;72.00
20957;DHT22;10637;47.970;7.830;2023-03-29T10:26:42;15.20;72.60
20957;DHT22;10637;47.970;7.830;2023-03-29T10:31:44;15.30;72.10
20957;DHT22;10637;47.970;7.830;2023-03-29T10:36:56;15.40;73.50
20957;DHT22;10637;47.970;7.830;2023-03-29T10:42:01;15.60;72.00
20957;DHT22;10637;47.970;7.830;2023-03-29T10:47:15;15.60;71.40
20957;DHT22;10637;47.970;7.830;2023-03-29T10:52:20;15.70;70.90
20957;DHT22;10637;47.970;7.830;2023-03-29T10:57:51;15.90;71.20
20957;DHT22;10637;47.970;7.830;2023-03-29T11:29:18;17.00;69.50
20957;DHT22;10637;47.970;7.830;2023-03-29T11:39:56;17.30;67.60
20957;DHT22;10637;47.970;7.830;2023-03-29T11:45:03;17.50;67.90
20957;DHT22;10637;47.970;7.830;2023-03-29T11:50:17;17.80;68.30
20957;DHT22;10637;47.970;7.830;2023-03-29T11:55:26;17.80;70.40
20957;DHT22;10637;47.970;7.830;2023-03-29T12:00:34;17.90;69.80
20957;DHT22;10637;47.970;7.830;2023-03-29T12:05:44;17.60;70.10
20957;DHT22;10637;47.970;7.830;2023-03-29T12:10:52;17.70;70.40
20957;DHT22;10637;47.970;7.830;2023-03-29T12:21:28;18.10;70.60
20957;DHT22;10637;47.970;7.830;2023-03-29T12:26:44;18.50;71.90
20957;DHT22;10637;47.970;7.830;2023-03-29T12:32:20;18.60;69.50
20957;DHT22;10637;47.970;7.830;2023-03-29T12:42:51;18.80;69.90
20957;DHT22;10637;47.970;7.830;2023-03-29T12:47:54;19.10;70.10
20957;DHT22;10637;47.970;7.830;2023-03-29T12:58:51;19.00;69.80
20957;DHT22;10637;47.970;7.830;2023-03-29T13:04:17;18.60;70.20
20957;DHT22;10637;47.970;7.830;2023-03-29T13:09:34;18.60;71.00
20957;DHT22;10637;47.970;7.830;2023-03-29T13:14:41;18.60;71.90
20957;DHT22;10637;47.970;7.830;2023-03-29T13:26:13;19.20;71.40
20957;DHT22;10637;47.970;7.830;2023-03-29T13:31:27;19.20;72.30
20957;DHT22;10637;47.970;7.830;2023-03-29T13:37:11;19.20;71.40
20957;DHT22;10637;47.970;7.830;2023-03-29T13:52:56;19.80;70.50
20957;DHT22;10637;47.970;7.830;2023-03-29T13:58:08;19.60;70.20
20957;DHT22;10637;47.970;7.830;2023-03-29T14:03:13;19.50;70.70
20957;DHT22;10637;47.970;7.830;2023-03-29T14:08:25;19.80;71.00
20957;DHT22;10637;47.970;7.830;2023-03-29T14:13:27;19.80;68.70
20957;DHT22;10637;47.970;7.830;2023-03-29T14:18:35;20.30;69.00
20957;DHT22;10637;47.970;7.830;2023-03-29T14:23:37;20.30;67.90
20957;DHT22;10637;47.970;7.830;2023-03-29T14:28:51;20.00;68.30
20957;DHT22;10637;47.970;7.830;2023-03-29T14:33:54;19.70;69.70
20957;DHT22;10637;47.970;7.830;2023-03-29T14:39:00;19.60;70.20
20957;DHT22;10637;47.970;7.830;2023-03-29T14:44:06;19.60;70.70
20957;DHT22;10637;47.970;7.830;2023-03-29T14:49:13;19.50;69.80
20957;DHT22;10637;47.970;7.830;2023-03-29T14:54:19;19.40;68.90
20957;DHT22;10637;47.970;7.830;2023-03-29T14:59:39;19.20;69.50
20957;DHT22;10637;47.970;7.830;2023-03-29T15:04:42;19.10;69.90
20957;DHT22;10637;47.970;7.830;2023-03-29T15:09:44;19.10;70.00
20957;DHT22;10637;47.970;7.830;2023-03-29T15:14:48;19.00;68.50
20957;DHT22;10637;47.970;7.830;2023-03-29T15:19:57;19.00;70.20
20957;DHT22;10637;47.970;7.830;2023-03-29T15:24:59;18.90;71.70
20957;DHT22;10637;47.970;7.830;2023-03-29T15:30:08;18.90;71.90
20957;DHT22;10637;47.970;7.830;2023-03-29T15:35:23;18.90;72.10
20957;DHT22;10637;47.970;7.830;2023-03-29T15:40:25;18.90;71.40
20957;DHT22;10637;47.970;7.830;2023-03-29T15:45:28;18.90;72.20
20957;DHT22;10637;47.970;7.830;2023-03-29T15:50:30;18.80;72.00
20957;DHT22;10637;47.970;7.830;2023-03-29T15:55:32;18.80;72.90
20957;DHT22;10637;47.970;7.830;2023-03-29T16:00:35;18.90;72.20
20957;DHT22;10637;47.970;7.830;2023-03-29T16:05:37;18.90;72.10
20957;DHT22;10637;47.970;7.830;2023-03-29T16:10:39;18.90;72.70
20957;DHT22;10637;47.970;7.830;2023-03-29T16:15:41;18.80;72.40
20957;DHT22;10637;47.970;7.830;2023-03-29T16:20:43;18.70;73.00
20957;DHT22;10637;47.970;7.830;2023-03-29T16:25:45;18.70;73.80
20957;DHT22;10637;47.970;7.830;2023-03-29T16:30:47;18.70;73.30
20957;DHT22;10637;47.970;7.830;2023-03-29T16:35:49;18.70;74.30
20957;DHT22;10637;47.970;7.830;2023-03-29T16:40:51;18.60;75.60
20957;DHT22;10637;47.970;7.830;2023-03-29T16:45:53;18.60;75.70
20957;DHT22;10637;47.970;7.830;2023-03-29T16:50:55;18.50;75.50
20957;DHT22;10637;47.970;7.830;2023-03-29T16:55:57;18.40;74.90
20957;DHT22;10637;47.970;7.830;2023-03-29T17:01:06;18.40;73.20
20957;DHT22;10637;47.970;7.830;2023-03-29T17:06:10;18.40;71.60
20957;DHT22;10637;47.970;7.830;2023-03-29T17:11:12;18.40;74.10
20957;DHT22;10637;47.970;7.830;2023-03-29T17:16:15;18.20;76.80
20957;DHT22;10637;47.970;7.830;2023-03-29T17:21:17;18.10;78.20
20957;DHT22;10637;47.970;7.830;2023-03-29T17:26:19;17.90;77.80
20957;DHT22;10637;47.970;7.830;2023-03-29T17:31:21;17.70;79.10
20957;DHT22;10637;47.970;7.830;2023-03-29T17:36:22;17.60;78.70
20957;DHT22;10637;47.970;7.830;2023-03-29T17:41:26;17.40;82.40
20957;DHT22;10637;47.970;7.830;2023-03-29T17:46:30;17.30;81.40
20957;DHT22;10637;47.970;7.830;2023-03-29T17:51:32;17.20;84.00
20957;DHT22;10637;47.970;7.830;2023-03-29T17:56:34;16.90;87.90
20957;DHT22;10637;47.970;7.830;2023-03-29T18:01:36;16.80;88.10
20957;DHT22;10637;47.970;7.830;2023-03-29T18:06:40;16.40;90.50
20957;DHT22;10637;47.970;7.830;2023-03-29T18:11:43;16.50;90.00
20957;DHT22;10637;47.970;7.830;2023-03-29T18:16:44;16.60;90.10
20957;DHT22;10637;47.970;7.830;2023-03-29T18:21:47;16.70;87.30
20957;DHT22;10637;47.970;7.830;2023-03-29T18:26:49;17.00;84.00
20957;DHT22;10637;47.970;7.830;2023-03-29T18:31:51;17.10;83.50
20957;DHT22;10637;47.970;7.830;2023-03-29T18:36:53;17.20;83.00
20957;DHT22;10637;47.970;7.830;2023-03-29T18:41:55;17.20;84.50
20957;DHT22;10637;47.970;7.830;2023-03-29T18:46:57;17.10;85.10
20957;DHT22;10637;47.970;7.830;2023-03-29T18:51:59;17.20;85.70
20957;DHT22;10637;47.970;7.830;2023-03-29T18:57:02;17.30;85.20
20957;DHT22;10637;47.970;7.830;2023-03-29T19:02:04;17.50;84.90
20957;DHT22;10637;47.970;7.830;2023-03-29T19:07:06;17.60;84.70
20957;DHT22;10637;47.970;7.830;2023-03-29T19:12:09;17.90;84.00
20957;DHT22;10637;47.970;7.830;2023-03-29T19:17:11;17.90;84.20
20957;DHT22;10637;47.970;7.830;2023-03-29T19:22:13;17.80;85.10
20957;DHT22;10637;47.970;7.830;2023-03-29T19:27:14;17.80;85.50
20957;DHT22;10637;47.970;7.830;2023-03-29T19:32:17;17.90;84.70
20957;DHT22;10637;47.970;7.830;2023-03-29T19:37:18;18.10;84.00
20957;DHT22;10637;47.970;7.830;2023-03-29T19:42:20;18.20;84.40
20957;DHT22;10637;47.970;7.830;2023-03-29T19:47:22;18.30;84.30
20957;DHT22;10637;47.970;7.830;2023-03-29T19:52:24;18.60;83.00
20957;DHT22;10637;47.970;7.830;2023-03-29T19:57:28;18.70;82.50
20957;DHT22;10637;47.970;7.830;2023-03-29T20:02:31;18.70;82.80
20957;DHT22;10637;47.970;7.830;2023-03-29T20:07:33;18.70;83.20
20957;DHT22;10637;47.970;7.830;2023-03-29T20:12:35;18.70;83.70
20957;DHT22;10637;47.970;7.830;2023-03-29T20:17:37;18.70;84.30
20957;DHT22;10637;47.970;7.830;2023-03-29T20:22:41;18.70;85.10
20957;DHT22;10637;47.970;7.830;2023-03-29T20:27:45;18.70;84.90
20957;DHT22;10637;47.970;7.830;2023-03-29T20:32:49;18.60;85.80
20957;DHT22;10637;47.970;7.830;2023-03-29T20:37:51;18.50;85.30
20957;DHT22;10637;47.970;7.830;2023-03-29T20:42:53;18.60;85.90
20957;DHT22;10637;47.970;7.830;2023-03-29T20:47:55;18.60;85.80
20957;DHT22;10637;47.970;7.830;2023-03-29T20:52:58;18.70;85.90
20957;DHT22;10637;47.970;7.830;2023-03-29T20:58:04;18.70;86.40
20957;DHT22;10637;47.970;7.830;2023-03-29T21:03:06;18.60;86.70
20957;DHT22;10637;47.970;7.830;2023-03-29T21:08:09;18.50;87.30
20957;DHT22;10637;47.970;7.830;2023-03-29T21:13:11;18.50;86.90
20957;DHT22;10637;47.970;7.830;2023-03-29T21:18:13;18.60;86.90
20957;DHT22;10637;47.970;7.830;2023-03-29T21:23:15;18.60;86.70
20957;DHT22;10637;47.970;7.830;2023-03-29T21:28:16;18.60;87.30
20957;DHT22;10637;47.970;7.830;2023-03-29T21:33:18;18.50;87.20
20957;DHT22;10637;47.970;7.830;2023-03-29T21:38:20;18.50;87.60
20957;DHT22;10637;47.970;7.830;2023-03-29T21:43:22;18.40;88.20
20957;DHT22;10637;47.970;7.830;2023-03-29T21:48:24;18.40;88.20
20957;DHT22;10637;47.970;7.830;2023-03-29T21:53:26;18.40;88.30
20957;DHT22;10637;47.970;7.830;2023-03-29T21:58:28;18.30;88.90
20957;DHT22;10637;47.970;7.830;2023-03-29T22:03:30;18.20;89.90
20957;DHT22;10637;47.970;7.830;2023-03-29T22:08:32;18.10;90.30
20957;DHT22;10637;47.970;7.830;2023-03-29T22:13:34;18.00;90.80
20957;DHT22;10637;47.970;7.830;2023-03-29T22:18:36;17.90;90.70
20957;DHT22;10637;47.970;7.830;2023-03-29T22:23:46;17.90;90.50
20957;DHT22;10637;47.970;7.830;2023-03-29T22:28:49;18.00;90.40
20957;DHT22;10637;47.970;7.830;2023-03-29T22:33:51;17.90;91.00
20957;DHT22;10637;47.970;7.830;2023-03-29T22:38:54;17.90;90.70
20957;DHT22;10637;47.970;7.830;2023-03-29T22:43:58;17.90;90.90
20957;DHT22;10637;47.970;7.830;2023-03-29T22:49:03;17.80;91.20
20957;DHT22;10637;47.970;7.830;2023-03-29T22:54:05;17.70;91.50
20957;DHT22;10637;47.970;7.830;2023-03-29T22:59:06;17.60;92.20
20957;DHT22;10637;47.970;7.830;2023-03-29T23:04:08;17.60;92.00
20957;DHT22;10637;47.970;7.830;2023-03-29T23:09:10;17.60;91.60
20957;DHT22;10637;47.970;7.830;2023-03-29T23:14:13;17.80;90.50
20957;DHT22;10637;47.970;7.830;2023-03-29T23:19:15;18.30;89.20
20957;DHT22;10637;47.970;7.830;2023-03-29T23:24:17;18.50;88.00
20957;DHT22;10637;47.970;7.830;2023-03-29T23:29:19;18.40;87.80
20957;DHT22;10637;47.970;7.830;2023-03-29T23:34:21;18.60;87.00
20957;DHT22;10637;47.970;7.830;2023-03-29T23:39:23;18.60;86.80
20957;DHT22;10637;47.970;7.830;2023-03-29T23:44:25;18.80;85.60
20957;DHT22;10637;47.970;7.830;2023-03-29T23:49:27;18.90;85.00
20957;DHT22;10637;47.970;7.830;2023-03-29T23:54:29;19.00;84.10
20957;DHT22;10637;47.970;7.830;2023-03-29T23:59:32;19.00;85.50
